Time;durP1;ratioP1;P1;durP2;ratioP2;P2;SDS_P1;SDS_P2;PMS_P1;PMS_P2;Temp;Humidity;BMP_temperature;BMP_pressure;BME280_temperature;BME280_humidity;BME280_pressure;Samples;Min_cycle;Max_cycle;Signal;HPM_P1;HPM_P2
2021/06/17 00:01:39;;;;;;;8.43;4.22;;;;;;;17.78;89.88;100486.34;5081721;28;20031;-69
2021/06/17 00:04:05;;;;;;;6.57;4.50;;;;;;;17.78;89.18;100475.91;5080482;28;20035;-69
2021/06/17 00:06:30;;;;;;;7.13;3.95;;;;;;;17.80;88.42;100455.91;5092854;28;20028;-68
2021/06/17 00:08:56;;;;;;;7.45;4.43;;;;;;;18.03;87.77;100481.34;5088739;28;20064;-68
2021/06/17 00:11:22;;;;;;;6.10;3.78;;;;;;;17.87;87.76;100465.56;5093010;28;20028;-67
2021/06/17 00:13:47;;;;;;;8.55;4.50;;;;;;;17.50;88.28;100433.09;5093103;28;20032;-69
2021/06/17 00:16:13;;;;;;;5.18;3.67;;;;;;;17.57;89.28;100477.50;5091481;28;20024;-69
2021/06/17 00:18:39;;;;;;;5.00;4.30;;;;;;;17.41;88.80;100471.28;5092500;28;20421;-69
2021/06/17 00:21:05;;;;;;;8.55;4.40;;;;;;;17.53;88.24;100470.50;5092813;28;20032;-67
2021/06/17 00:23:32;;;;;;;8.70;4.60;;;;;;;17.55;89.52;100473.16;5093511;28;20489;-70
2021/06/17 00:25:58;;;;;;;6.05;4.20;;;;;;;17.42;89.11;100443.44;5091588;28;20043;-70
2021/06/17 00:28:25;;;;;;;5.90;4.57;;;;;;;17.40;88.82;100421.69;5092328;28;20020;-70
2021/06/17 00:30:51;;;;;;;9.68;4.70;;;;;;;17.69;89.23;100454.97;5082682;28;20056;-64
2021/06/17 00:33:17;;;;;;;6.07;3.75;;;;;;;17.67;88.78;100457.56;5078290;28;20024;-70
2021/06/17 00:35:42;;;;;;;11.65;4.60;;;;;;;17.43;88.54;100399.09;5075099;28;20402;-69
2021/06/17 00:38:08;;;;;;;5.00;4.05;;;;;;;17.76;88.74;100454.16;5078280;28;20020;-70
2021/06/17 00:40:34;;;;;;;5.20;4.35;;;;;;;17.85;88.26;100451.59;5076079;28;20027;-70
2021/06/17 00:43:00;;;;;;;10.48;5.15;;;;;;;17.68;87.82;100417.53;5077202;28;20028;-71
2021/06/17 00:45:30;;;;;;;7.35;4.00;;;;;;;17.99;87.40;100459.56;5076481;28;20522;-70
2021/06/17 00:47:56;;;;;;;5.78;3.90;;;;;;;17.99;87.22;100454.31;5075999;28;20039;-70
2021/06/17 00:50:28;;;;;;;9.27;4.20;;;;;;;18.00;87.22;100452.59;5077987;28;20028;-72
2021/06/17 00:52:54;;;;;;;4.95;3.88;;;;;;;17.91;87.49;100456.88;5076028;28;20035;-68
2021/06/17 00:55:20;;;;;;;5.70;4.15;;;;;;;17.65;87.98;100445.38;5077935;28;20044;-69
2021/06/17 00:57:46;;;;;;;7.32;4.40;;;;;;;17.33;89.11;100466.84;5075319;28;20032;-70
2021/06/17 01:00:14;;;;;;;6.43;4.38;;;;;;;17.16;89.79;100454.53;5077799;28;20035;-67
2021/06/17 01:02:39;;;;;;;7.65;4.97;;;;;;;17.22;90.44;100465.03;5075591;28;20050;-66
2021/06/17 01:05:12;;;;;;;6.80;4.45;;;;;;;17.21;89.83;100454.56;5076338;28;20107;-68
2021/06/17 01:07:49;;;;;;;6.18;4.45;;;;;;;17.11;90.38;100461.44;5087699;28;20036;-69
2021/06/17 01:10:38;;;;;;;6.13;5.07;;;;;;;17.16;90.67;100459.75;5076498;28;20505;-66
2021/06/17 01:13:29;;;;;;;6.43;4.85;;;;;;;17.16;90.37;100457.16;5084560;28;20032;-68
2021/06/17 01:16:33;;;;;;;9.65;5.28;;;;;;;16.95;90.42;100463.00;5075330;28;20056;-69
2021/06/17 01:19:02;;;;;;;7.75;5.32;;;;;;;16.86;90.85;100457.66;5007273;28;20107;-70
2021/06/17 01:21:32;;;;;;;10.88;5.85;;;;;;;16.89;91.27;100453.34;4997459;28;20042;-70
2021/06/17 01:24:06;;;;;;;6.20;5.03;;;;;;;17.05;90.62;100458.78;5009878;28;20054;-69
2021/06/17 01:26:55;;;;;;;12.77;5.28;;;;;;;16.93;91.13;100470.81;5011185;28;20551;-69
2021/06/17 01:29:24;;;;;;;6.63;5.07;;;;;;;16.89;91.01;100462.91;5009880;28;20034;-67
2021/06/17 01:31:51;;;;;;;6.22;5.10;;;;;;;16.74;90.70;100432.34;5010261;28;20049;-66
2021/06/17 01:34:20;;;;;;;7.88;5.20;;;;;;;16.58;91.79;100466.03;5010376;28;20038;-64
2021/06/17 01:36:49;;;;;;;15.65;6.00;;;;;;;16.19;92.78;100425.59;5010374;28;20074;-66
2021/06/17 01:39:18;;;;;;;7.47;5.65;;;;;;;16.41;93.16;100472.75;4999839;28;20100;-68
2021/06/17 01:41:46;;;;;;;9.77;5.32;;;;;;;16.55;92.65;100463.41;5009466;28;20463;-67
2021/06/17 01:44:13;;;;;;;6.95;5.28;;;;;;;16.66;92.43;100464.41;5010295;28;20599;-67
2021/06/17 01:46:40;;;;;;;7.95;4.95;;;;;;;16.80;91.55;100466.28;5009669;28;20048;-69
2021/06/17 01:49:06;;;;;;;7.80;5.30;;;;;;;16.76;91.25;100470.59;5010306;28;20030;-71
2021/06/17 01:51:33;;;;;;;8.77;5.85;;;;;;;16.69;91.60;100466.16;5010501;28;20096;-69
2021/06/17 01:54:01;;;;;;;8.43;6.20;;;;;;;16.63;91.04;100450.44;5008559;28;20033;-68
2021/06/17 01:56:26;;;;;;;7.47;4.93;;;;;;;16.89;90.71;100473.34;5064465;28;20555;-69
2021/06/17 01:58:59;;;;;;;12.10;5.65;;;;;;;16.99;90.30;100462.19;5078334;28;20048;-68
2021/06/17 02:01:31;;;;;;;8.38;5.18;;;;;;;17.04;89.91;100473.53;5082674;28;20024;-68
2021/06/17 02:03:58;;;;;;;7.35;5.22;;;;;;;16.81;90.38;100455.88;5078268;28;20436;-70
2021/06/17 02:06:26;;;;;;;7.32;5.18;;;;;;;16.82;90.42;100459.34;5086096;28;20110;-67
2021/06/17 02:08:54;;;;;;;10.93;5.88;;;;;;;16.80;90.28;100461.94;5078040;28;20074;-69
2021/06/17 02:11:21;;;;;;;7.97;4.95;;;;;;;16.75;90.15;100465.38;5082774;28;20489;-69
2021/06/17 02:13:48;;;;;;;8.68;5.68;;;;;;;16.84;89.92;100475.03;5092324;28;20024;-69
2021/06/17 02:16:15;;;;;;;9.70;5.30;;;;;;;16.89;89.70;100469.00;5083962;28;20027;-69
2021/06/17 02:18:41;;;;;;;7.45;5.40;;;;;;;16.98;89.20;100466.53;5083932;28;20028;-68
2021/06/17 02:21:11;;;;;;;7.35;5.65;;;;;;;16.73;89.24;100425.38;5082032;28;20108;-69
2021/06/17 02:23:37;;;;;;;;;;;;;;;16.83;89.62;100474.13;5092409;28;20024;-71
2021/06/17 02:26:05;;;;;;;6.25;5.63;;;;;;;16.77;89.88;100480.19;5091863;28;19966;-69
2021/06/17 02:28:38;;;;;;;8.80;5.20;;;;;;;16.71;90.05;100487.03;5090483;28;20383;-68
2021/06/17 02:31:09;;;;;;;15.63;5.10;;;;;;;16.78;89.75;100488.84;5092158;28;20024;-68
2021/06/17 02:33:36;;;;;;;9.95;4.85;;;;;;;16.64;90.41;100480.88;5091683;28;20474;-69
2021/06/17 02:36:03;;;;;;;10.82;4.88;;;;;;;16.27;91.63;100439.56;5092307;28;20135;-69
2021/06/17 02:38:35;;;;;;;9.25;5.40;;;;;;;16.27;92.38;100463.03;5089285;28;20039;-66
2021/06/17 02:41:08;;;;;;;6.78;4.80;;;;;;;16.23;93.26;100483.81;5090792;28;20020;-68
2021/06/17 02:43:38;;;;;;;9.55;5.63;;;;;;;16.10;94.77;100493.16;5080798;28;20049;-68
2021/06/17 02:46:04;;;;;;;;;;;;;;;16.07;95.24;100494.00;5083943;28;20028;-69
2021/06/17 02:48:29;;;;;;;8.07;5.40;;;;;;;16.06;95.57;100488.78;5083375;28;19960;-68
2021/06/17 02:50:55;;;;;;;8.23;5.20;;;;;;;16.09;95.49;100497.50;5082417;28;20029;-68
2021/06/17 02:53:22;;;;;;;9.50;5.10;;;;;;;16.15;95.42;100496.75;5085744;28;20027;-68
2021/06/17 02:55:49;;;;;;;6.97;5.22;;;;;;;16.20;94.98;100500.28;5060338;28;20086;-66
2021/06/17 02:58:14;;;;;;;11.35;5.05;;;;;;;16.26;94.86;100504.69;5077602;28;20032;-68
2021/06/17 03:00:50;;;;;;;7.70;5.65;;;;;;;16.17;94.32;100467.25;5076999;28;20016;-68
2021/06/17 03:03:39;;;;;;;9.77;5.47;;;;;;;16.33;94.44;100494.38;5077830;28;20040;-68
2021/06/17 03:06:13;;;;;;;8.20;5.35;;;;;;;16.31;94.62;100500.41;5083823;28;20419;-68
2021/06/17 03:08:49;;;;;;;13.80;5.93;;;;;;;15.99;95.22;100470.47;5079548;28;20409;-68
2021/06/17 03:11:16;;;;;;;9.55;6.30;;;;;;;15.87;96.15;100498.91;5056481;28;20032;-69
2021/06/17 03:13:43;;;;;;;11.48;6.45;;;;;;;15.76;96.95;100506.50;5079109;28;20127;-68
2021/06/17 03:16:13;;;;;;;8.48;6.47;;;;;;;15.79;97.32;100514.38;5074888;28;20025;-68
2021/06/17 03:18:41;;;;;;;11.18;6.50;;;;;;;15.85;97.35;100498.88;5078259;28;20028;-68
2021/06/17 03:21:07;;;;;;;7.78;6.20;;;;;;;16.04;96.51;100519.13;5076297;28;20020;-69
2021/06/17 03:23:34;;;;;;;8.13;6.07;;;;;;;16.15;96.50;100517.56;5076296;28;20025;-68
2021/06/17 03:26:05;;;;;;;11.13;6.22;;;;;;;16.35;95.64;100517.84;5086457;28;20534;-68
2021/06/17 03:28:32;;;;;;;9.40;5.93;;;;;;;16.48;95.17;100513.69;5091048;28;20501;-68
2021/06/17 03:30:58;;;;;;;11.13;5.82;;;;;;;16.58;94.79;100520.75;5090810;28;20025;-67
2021/06/17 03:33:27;;;;;;;9.85;5.45;;;;;;;16.72;94.46;100528.75;5091207;28;20041;-68
2021/06/17 03:35:54;;;;;;;8.32;5.63;;;;;;;16.71;94.83;100520.91;5090946;28;20028;-67
2021/06/17 03:38:22;;;;;;;9.98;5.90;;;;;;;16.72;95.02;100528.75;5090930;28;20492;-68
2021/06/17 03:40:51;;;;;;;14.43;7.17;;;;;;;16.29;96.25;100487.38;5090656;28;20110;-68
2021/06/17 03:43:18;;;;;;;16.77;7.30;;;;;;;16.48;97.37;100535.38;5090565;28;20034;-68
2021/06/17 03:45:45;;;;;;;9.60;6.43;;;;;;;16.45;97.56;100522.34;5091166;28;20077;-69
2021/06/17 03:48:13;;;;;;;12.23;6.85;;;;;;;16.69;97.13;100543.50;5090979;28;20051;-68
2021/06/17 03:50:42;;;;;;;15.20;6.90;;;;;;;16.81;96.97;100551.50;5090715;28;20101;-67
2021/06/17 03:53:08;;;;;;;9.35;6.75;;;;;;;16.82;96.67;100546.28;5090914;28;20471;-68
2021/06/17 03:55:35;;;;;;;12.65;7.28;;;;;;;16.85;97.12;100541.94;5089356;28;20497;-68
2021/06/17 03:58:01;;;;;;;11.32;6.53;;;;;;;16.70;97.98;100530.47;5090735;28;20016;-68
2021/06/17 04:00:32;;;;;;;14.50;6.22;;;;;;;16.71;98.37;100526.13;5075204;28;20474;-68
2021/06/17 04:03:05;;;;;;;8.55;6.47;;;;;;;16.73;98.75;100525.28;5091023;28;20085;-68
2021/06/17 04:05:31;;;;;;;10.75;6.95;;;;;;;16.90;99.21;100533.34;5090575;28;20060;-68
2021/06/17 04:08:00;;;;;;;10.82;6.43;;;;;;;17.03;98.77;100536.13;5090778;28;20111;-68
2021/06/17 04:10:27;;;;;;;8.63;6.35;;;;;;;17.18;98.36;100551.94;5091696;28;20097;-68
2021/06/17 04:12:58;;;;;;;8.45;5.85;;;;;;;17.24;97.19;100554.59;5094448;28;20035;-67
2021/06/17 04:15:26;;;;;;;9.45;5.93;;;;;;;17.39;97.09;100571.31;5094625;28;20123;-68
2021/06/17 04:17:55;;;;;;;10.10;6.05;;;;;;;17.52;97.10;100572.28;5094137;28;20051;-68
2021/06/17 04:20:28;;;;;;;9.73;5.95;;;;;;;17.62;96.29;100572.41;5094674;28;20039;-68
2021/06/17 04:22:56;;;;;;;9.95;4.82;;;;;;;17.66;93.78;100573.31;5094170;28;20103;-68
2021/06/17 04:25:22;;;;;;;7.28;5.72;;;;;;;17.63;94.20;100566.34;5094210;28;20016;-68
2021/06/17 04:27:56;;;;;;;9.70;5.40;;;;;;;17.72;93.97;100575.09;5094305;28;20147;-69
2021/06/17 04:30:25;;;;;;;6.88;5.43;;;;;;;17.78;94.55;100575.16;5093304;28;20031;-68
2021/06/17 04:32:52;;;;;;;10.13;5.85;;;;;;;17.92;93.93;100572.69;5094155;28;20180;-68
2021/06/17 04:35:21;;;;;;;10.82;6.13;;;;;;;18.01;94.01;100569.31;5092261;28;20032;-68
2021/06/17 04:37:47;;;;;;;10.85;6.05;;;;;;;18.10;93.55;100574.59;5081578;28;20478;-68
2021/06/17 04:40:14;;;;;;;8.50;6.38;;;;;;;18.11;92.62;100569.38;5085071;28;20033;-69
2021/06/17 04:42:41;;;;;;;7.65;6.15;;;;;;;18.27;92.04;100567.75;5073484;28;20039;-66
2021/06/17 04:45:07;;;;;;;9.93;6.40;;;;;;;18.48;91.92;100575.69;5088799;28;20008;-68
2021/06/17 04:47:39;;;;;;;9.43;6.40;;;;;;;18.52;91.34;100580.97;5074941;28;20464;-70
2021/06/17 04:50:09;;;;;;;8.25;5.30;;;;;;;18.57;90.01;100579.25;5075817;28;20120;-67
2021/06/17 04:52:39;;;;;;;7.97;5.38;;;;;;;18.50;91.17;100561.78;5074856;28;20037;-68
2021/06/17 04:55:05;;;;;;;8.55;6.10;;;;;;;18.61;90.79;100572.31;5087591;28;20087;-71
2021/06/17 04:57:31;;;;;;;7.47;5.80;;;;;;;18.62;91.81;100579.28;5086157;28;20404;-71
2021/06/17 04:59:56;;;;;;;9.13;6.38;;;;;;;18.59;92.15;100577.53;5090165;28;20103;-67
2021/06/17 05:02:22;;;;;;;7.93;5.85;;;;;;;18.70;91.91;100584.56;5086775;28;20028;-70
2021/06/17 05:04:47;;;;;;;9.07;5.75;;;;;;;18.76;90.92;100592.44;5091486;28;20111;-68
2021/06/17 05:12:29;;;;;;;9.05;6.22;;;;;;;18.72;91.10;100593.28;5090610;28;20414;-68
2021/06/17 05:14:55;;;;;;;7.80;5.82;;;;;;;18.76;91.11;100590.69;5089401;28;20025;-68
2021/06/17 05:17:21;;;;;;;10.10;6.15;;;;;;;18.81;91.39;100595.94;5086372;28;20016;-69
2021/06/17 05:19:46;;;;;;;7.85;5.80;;;;;;;18.90;92.16;100596.03;5088587;28;20417;-68
2021/06/17 05:22:12;;;;;;;8.93;6.05;;;;;;;18.93;92.33;100592.56;5091676;28;20020;-68
2021/06/17 05:24:38;;;;;;;7.80;5.55;;;;;;;19.00;91.84;100598.69;5089838;28;20052;-68
2021/06/17 05:27:05;;;;;;;9.70;5.82;;;;;;;18.38;90.51;100483.28;5087987;28;20499;-68
2021/06/17 05:29:31;;;;;;;6.72;5.05;;;;;;;19.16;90.12;100600.47;5089061;28;20069;-68
2021/06/17 05:31:57;;;;;;;8.27;5.32;;;;;;;19.26;89.22;100611.00;5089481;28;20056;-68
2021/06/17 05:34:22;;;;;;;8.20;5.30;;;;;;;19.32;90.05;100622.34;5091787;28;20019;-67
2021/06/17 05:36:48;;;;;;;12.57;5.82;;;;;;;19.40;89.74;100615.41;5090261;28;20027;-68
2021/06/17 05:39:13;;;;;;;10.32;5.60;;;;;;;19.34;88.34;100591.81;5091715;28;20078;-68
2021/06/17 05:41:39;;;;;;;7.65;5.28;;;;;;;19.56;87.76;100605.84;5087870;28;20063;-68
2021/06/17 05:44:05;;;;;;;6.78;5.43;;;;;;;19.66;87.79;100616.34;5089245;28;20493;-68
2021/06/17 05:46:32;;;;;;;9.10;5.65;;;;;;;19.73;86.94;100613.72;5084899;28;20020;-68
2021/06/17 05:48:58;;;;;;;6.35;4.82;;;;;;;19.73;87.16;100608.47;5091970;28;20146;-66
2021/06/17 05:51:23;;;;;;;6.82;4.95;;;;;;;19.88;86.39;100617.28;5090766;28;20103;-69
2021/06/17 05:53:49;;;;;;;7.30;4.70;;;;;;;19.94;85.37;100612.03;5091384;28;20070;-68
2021/06/17 05:56:14;;;;;;;6.68;4.63;;;;;;;20.04;85.59;100605.91;5092084;28;20069;-68
2021/06/17 05:58:40;;;;;;;7.20;4.35;;;;;;;19.69;85.77;100543.88;5091793;28;20028;-68
2021/06/17 06:01:05;;;;;;;8.90;4.78;;;;;;;20.23;84.48;100612.91;5092708;28;20028;-67
2021/06/17 06:03:33;;;;;;;9.50;4.95;;;;;;;20.22;85.36;100619.03;5092797;28;20474;-68
2021/06/17 06:05:59;;;;;;;6.50;4.63;;;;;;;20.20;85.16;100609.41;5092103;28;20028;-67
2021/06/17 06:08:24;;;;;;;6.97;4.80;;;;;;;20.23;85.29;100602.44;5091930;28;20031;-67
2021/06/17 06:10:50;;;;;;;10.00;6.40;;;;;;;20.28;85.07;100593.69;5092691;28;20044;-68
2021/06/17 06:13:15;;;;;;;7.82;4.97;;;;;;;20.46;86.33;100608.53;5092542;28;20020;-68
2021/06/17 06:15:41;;;;;;;12.48;5.47;;;;;;;20.46;84.96;100592.78;5092701;28;20107;-68
2021/06/17 06:18:08;;;;;;;5.88;4.50;;;;;;;20.52;84.65;100595.41;5092770;28;20024;-73
2021/06/17 06:20:34;;;;;;;5.40;4.50;;;;;;;20.51;85.07;100593.66;5092376;28;20051;-65
2021/06/17 06:23:00;;;;;;;9.35;5.22;;;;;;;20.62;85.01;100600.59;5091799;28;20059;-68
2021/06/17 06:25:26;;;;;;;10.00;5.15;;;;;;;20.67;84.59;100607.59;5091383;28;20047;-67
2021/06/17 06:27:52;;;;;;;14.48;5.20;;;;;;;20.85;83.21;100614.56;5092324;28;20028;-66
2021/06/17 06:30:18;;;;;;;7.47;5.00;;;;;;;20.92;82.99;100598.81;5092074;28;20016;-67
2021/06/17 06:32:43;;;;;;;7.15;5.07;;;;;;;21.08;83.40;100605.72;5091745;28;20038;-69
2021/06/17 06:35:09;;;;;;;5.90;4.82;;;;;;;21.28;81.56;100617.91;5090525;28;20059;-66
2021/06/17 06:37:35;;;;;;;10.27;4.75;;;;;;;21.44;82.07;100623.94;5091596;28;20024;-68
2021/06/17 06:40:01;;;;;;;9.23;5.13;;;;;;;21.52;79.96;100624.78;5091506;28;20028;-68
2021/06/17 06:42:26;;;;;;;8.85;5.60;;;;;;;21.49;79.93;100620.41;5092137;28;20129;-68
2021/06/17 06:44:52;;;;;;;9.20;4.85;;;;;;;21.62;81.00;100621.25;5092163;28;20020;-68
2021/06/17 06:47:17;;;;;;;8.48;4.72;;;;;;;21.74;79.89;100622.06;5093739;28;20477;-70
2021/06/17 06:49:43;;;;;;;8.77;4.45;;;;;;;21.85;80.80;100616.72;5092351;28;20027;-67
2021/06/17 06:52:08;;;;;;;10.82;7.20;;;;;;;21.90;80.61;100613.16;5073047;28;20606;-70
2021/06/17 06:54:34;;;;;;;7.88;5.07;;;;;;;21.75;79.67;100576.50;5090104;28;20529;-69
2021/06/17 06:56:59;;;;;;;15.23;5.57;;;;;;;22.14;80.47;100614.75;5090399;28;20047;-71
2021/06/17 06:59:25;;;;;;;8.70;5.00;;;;;;;22.30;77.30;100615.44;5090836;28;20028;-68
2021/06/17 07:01:51;;;;;;;13.57;4.90;;;;;;;22.28;79.23;100618.97;5091476;28;20027;-68
2021/06/17 07:04:16;;;;;;;7.55;5.03;;;;;;;22.28;78.99;100606.72;5091734;28;20106;-66
2021/06/17 07:06:42;;;;;;;5.70;4.45;;;;;;;22.25;76.43;100606.72;5094860;28;20119;-66
2021/06/17 07:09:07;;;;;;;10.57;4.55;;;;;;;22.30;77.16;100606.69;5091799;28;20039;-67
2021/06/17 07:11:33;;;;;;;7.95;4.82;;;;;;;22.37;75.55;100618.94;5089817;28;20524;-68
2021/06/17 07:13:59;;;;;;;8.02;4.43;;;;;;;22.39;77.08;100617.19;5091322;28;20032;-68
2021/06/17 07:16:25;;;;;;;12.10;4.60;;;;;;;22.27;76.43;100575.19;5091118;28;20024;-68
2021/06/17 07:18:51;;;;;;;7.15;3.97;;;;;;;22.60;74.75;100609.94;5091049;28;20024;-68
2021/06/17 07:21:17;;;;;;;4.60;3.42;;;;;;;22.79;72.82;100605.34;5091090;28;20097;-68
2021/06/17 07:23:45;;;;;;;5.78;4.13;;;;;;;22.74;73.73;100573.84;5091333;28;20027;-68
2021/06/17 07:26:11;;;;;;;7.20;3.90;;;;;;;23.04;72.85;100605.06;5055632;28;20032;-68
2021/06/17 07:28:37;;;;;;;6.50;3.90;;;;;;;23.04;71.17;100605.06;5090650;28;20500;-68
2021/06/17 07:31:02;;;;;;;15.05;3.97;;;;;;;22.98;72.25;100584.94;5072591;28;20402;-68
2021/06/17 07:33:28;;;;;;;4.43;4.03;;;;;;;23.22;71.95;100596.94;5091511;28;20031;-68
2021/06/17 07:35:54;;;;;;;5.75;3.55;;;;;;;23.30;69.75;100595.97;5091742;28;20020;-68
2021/06/17 07:38:19;;;;;;;4.90;4.32;;;;;;;23.32;73.33;100592.44;5091642;28;20081;-68
2021/06/17 07:40:45;;;;;;;4.50;3.40;;;;;;;23.41;67.86;100588.78;5091374;28;20031;-68
2021/06/17 07:43:10;;;;;;;5.53;3.80;;;;;;;23.41;72.10;100599.34;5091706;28;20031;-68
2021/06/17 07:45:37;;;;;;;5.45;3.50;;;;;;;23.43;70.00;100595.78;5094243;28;20055;-68
2021/06/17 07:48:04;;;;;;;4.60;3.75;;;;;;;23.44;68.97;100604.56;5095664;28;20099;-68
2021/06/17 07:50:29;;;;;;;5.63;3.50;;;;;;;23.40;68.74;100590.56;5094412;28;20036;-68
2021/06/17 07:52:55;;;;;;;6.78;3.72;;;;;;;23.51;66.93;100597.44;5095646;28;20108;-68
2021/06/17 07:55:21;;;;;;;5.28;3.83;;;;;;;23.63;65.92;100592.00;5095053;28;20139;-69
2021/06/17 07:57:46;;;;;;;4.90;3.17;;;;;;;23.80;63.33;100596.13;5095577;28;20063;-67
2021/06/17 08:00:12;;;;;;;5.40;3.00;;;;;;;24.11;62.29;100596.50;5095037;28;20035;-67
2021/06/17 08:02:39;;;;;;;8.85;6.70;;;;;;;24.02;61.44;100565.88;5094199;28;20522;-68
2021/06/17 08:05:05;;;;;;;4.70;3.40;;;;;;;24.35;61.48;100586.41;5092929;28;20062;-67
2021/06/17 08:07:30;;;;;;;4.22;3.05;;;;;;;24.33;62.06;100597.00;5094892;28;20024;-66
2021/06/17 08:09:56;;;;;;;6.20;3.53;;;;;;;24.22;63.43;100580.50;5095056;28;20048;-67
2021/06/17 08:12:26;;;;;;;4.63;3.50;;;;;;;24.18;65.47;100581.47;5094964;28;20020;-68
2021/06/17 08:14:51;;;;;;;5.03;3.58;;;;;;;24.18;64.31;100565.63;5089808;28;20493;-67
2021/06/17 08:17:17;;;;;;;7.43;4.05;;;;;;;24.19;68.40;100578.78;5094470;28;20099;-68
2021/06/17 08:19:42;;;;;;;5.80;3.20;;;;;;;24.23;63.36;100575.19;5094688;28;20060;-67
2021/06/17 08:22:10;;;;;;;4.93;3.20;;;;;;;24.23;66.10;100569.06;5094814;28;20024;-67
2021/06/17 08:24:39;;;;;;;5.28;3.47;;;;;;;24.34;64.59;100588.19;5095092;28;20377;-68
2021/06/17 08:27:07;;;;;;;4.53;3.45;;;;;;;24.09;61.89;100542.03;5094857;28;20051;-68
2021/06/17 08:29:33;;;;;;;3.63;2.88;;;;;;;24.41;60.87;100577.53;5093315;28;20123;-67
2021/06/17 08:31:59;;;;;;;3.85;3.13;;;;;;;24.42;60.65;100579.28;5094605;28;20027;-67
2021/06/17 08:34:24;;;;;;;5.00;3.10;;;;;;;24.16;61.59;100549.84;5094566;28;20020;-64
2021/06/17 08:36:51;;;;;;;3.88;2.88;;;;;;;24.44;60.02;100583.63;5094690;28;20034;-67
2021/06/17 08:39:17;;;;;;;4.78;3.15;;;;;;;24.53;60.78;100577.28;5094638;28;20035;-67
2021/06/17 08:41:43;;;;;;;7.43;2.95;;;;;;;24.61;62.25;100567.47;5094744;28;20024;-68
2021/06/17 08:44:09;;;;;;;5.85;2.90;;;;;;;24.67;60.94;100571.78;5094645;28;20031;-67
2021/06/17 08:46:34;;;;;;;4.25;3.30;;;;;;;24.71;59.04;100576.09;5093238;28;20497;-68
2021/06/17 08:49:00;;;;;;;5.47;3.20;;;;;;;24.87;60.19;100581.94;5093358;28;20036;-67
2021/06/17 08:51:28;;;;;;;4.07;2.80;;;;;;;24.91;61.43;100578.34;5093784;28;20028;-67
2021/06/17 08:53:54;;;;;;;7.15;3.10;;;;;;;24.94;61.67;100559.78;5091034;28;20028;-68
2021/06/17 08:56:20;;;;;;;4.95;3.00;;;;;;;25.21;62.84;100573.31;5092428;28;20421;-67
2021/06/17 08:58:46;;;;;;;8.48;3.53;;;;;;;25.37;62.04;100571.19;5090590;28;20451;-66
2021/06/17 09:01:15;;;;;;;4.22;2.50;;;;;;;25.50;55.29;100571.78;5093207;28;20042;-68
2021/06/17 09:03:43;;;;;;;4.63;2.65;;;;;;;25.46;57.07;100548.97;5092952;28;20448;-68
2021/06/17 09:06:09;;;;;;;3.60;2.83;;;;;;;25.64;56.58;100574.09;5093487;28;20036;-67
2021/06/17 09:08:35;;;;;;;3.63;2.88;;;;;;;25.56;56.08;100569.00;5093585;28;20363;-68
2021/06/17 09:11:16;;;;;;;3.50;2.80;;;;;;;25.63;55.77;100559.13;5093793;28;20057;-67
2021/06/17 09:13:42;;;;;;;7.10;3.17;;;;;;;25.66;56.17;100561.72;5092779;28;20030;-67
2021/06/17 09:16:07;;;;;;;5.57;2.63;;;;;;;25.66;56.87;100543.22;5093004;28;20035;-67
2021/06/17 09:18:35;;;;;;;2.95;2.42;;;;;;;25.62;57.29;100565.34;5091841;28;20019;-67
2021/06/17 09:21:09;;;;;;;4.88;2.90;;;;;;;25.70;59.43;100562.53;5093603;28;20028;-68
2021/06/17 09:23:41;;;;;;;6.00;2.95;;;;;;;25.84;57.00;100544.53;5092060;28;20764;-68
2021/06/17 09:26:13;;;;;;;4.25;2.70;;;;;;;25.93;52.35;100565.47;5093511;28;20020;-68
2021/06/17 09:28:46;;;;;;;3.80;3.00;;;;;;;26.17;56.56;100563.13;5093569;28;20485;-68
2021/06/17 09:31:15;;;;;;;4.47;2.72;;;;;;;26.25;55.32;100552.31;5093755;28;20028;-67
2021/06/17 09:33:46;;;;;;;4.45;2.50;;;;;;;26.50;56.30;100552.50;5093018;28;20028;-68
2021/06/17 09:36:12;;;;;;;4.68;2.80;;;;;;;26.26;52.49;100520.53;5093510;28;20028;-67
2021/06/17 09:38:52;;;;;;;5.30;2.65;;;;;;;26.64;53.63;100547.69;5092949;28;20153;-67
2021/06/17 09:41:50;;;;;;;4.30;3.20;;;;;;;26.94;60.01;100546.88;5090797;28;20474;-67
2021/06/17 09:44:40;;;;;;;5.40;3.85;;;;;;;27.23;55.29;100539.81;5071723;28;20124;-68
2021/06/17 09:47:15;;;;;;;3.65;2.85;;;;;;;26.99;53.46;100536.13;5093073;28;20028;-67
2021/06/17 09:49:43;;;;;;;3.53;2.65;;;;;;;26.64;52.58;100545.06;5093250;28;20024;-67
2021/06/17 09:52:10;;;;;;;2.97;2.67;;;;;;;26.41;54.00;100537.75;5093007;28;20050;-68
2021/06/17 09:54:39;;;;;;;4.35;2.40;;;;;;;26.10;56.66;100541.22;5090960;28;20047;-66
2021/06/17 09:57:07;;;;;;;4.72;2.88;;;;;;;25.93;55.06;100544.31;5092222;28;20043;-67
2021/06/17 09:59:37;;;;;;;4.13;2.75;;;;;;;25.84;54.56;100544.53;5092577;28;20080;-68
2021/06/17 10:02:08;;;;;;;2.95;2.40;;;;;;;25.55;55.00;100543.47;5092923;28;20460;-67
2021/06/17 10:04:34;;;;;;;3.65;2.67;;;;;;;25.38;56.34;100546.50;5092980;28;20061;-70
2021/06/17 10:07:00;;;;;;;4.32;2.92;;;;;;;25.31;58.13;100543.13;5090935;28;20035;-67
2021/06/17 10:09:26;;;;;;;6.25;2.42;;;;;;;25.26;57.84;100539.72;5092561;28;20077;-67
2021/06/17 10:11:51;;;;;;;3.53;2.90;;;;;;;25.37;59.67;100544.75;5092002;28;20039;-67
2021/06/17 10:14:18;;;;;;;7.25;2.83;;;;;;;25.50;59.73;100524.22;5092954;28;20051;-68
2021/06/17 10:16:44;;;;;;;4.90;2.85;;;;;;;25.81;58.61;100518.16;5091625;28;20439;-69
2021/06/17 10:19:11;;;;;;;5.88;2.60;;;;;;;25.79;56.30;100512.91;5089607;28;20036;-68
2021/06/17 10:21:37;;;;;;;6.90;2.55;;;;;;;25.71;53.89;100516.63;5091280;28;20020;-69
2021/06/17 10:24:11;;;;;;;5.68;2.78;;;;;;;26.23;57.40;100510.03;5091242;28;20389;-69
2021/06/17 10:26:42;;;;;;;3.45;2.88;;;;;;;26.36;54.27;100459.41;5092003;28;20044;-68
2021/06/17 10:29:23;;;;;;;3.03;2.50;;;;;;;26.86;54.08;100506.50;5090034;28;20028;-68
2021/06/17 10:31:50;;;;;;;5.18;2.75;;;;;;;27.04;53.99;100510.34;5092590;28;20024;-69
2021/06/17 10:34:22;;;;;;;3.30;2.60;;;;;;;27.12;53.01;100479.19;5092244;28;20031;-68
2021/06/17 10:37:06;;;;;;;3.45;2.67;;;;;;;27.54;51.45;100489.34;5091325;28;20477;-68
2021/06/17 10:39:48;;;;;;;6.40;2.63;;;;;;;27.66;51.10;100487.19;5091297;28;20527;-68
2021/06/17 10:42:30;;;;;;;3.63;2.60;;;;;;;27.70;49.99;100492.34;5090662;28;20111;-69
2021/06/17 10:44:56;;;;;;;3.83;2.30;;;;;;;27.81;48.13;100491.97;5090078;28;20034;-69
2021/06/17 10:47:41;;;;;;;3.22;2.40;;;;;;;28.01;48.87;100485.09;5089841;28;20027;-69
2021/06/17 10:50:21;;;;;;;5.60;3.28;;;;;;;28.34;50.16;100484.84;5090151;28;20051;-67
2021/06/17 10:53:12;;;;;;;3.90;2.53;;;;;;;28.57;50.48;100474.22;5090561;28;20028;-68
2021/06/17 10:55:48;;;;;;;;;;;;;;;28.81;45.37;100473.34;5089447;28;20112;-67
2021/06/17 10:58:14;;;;;;;6.22;2.28;;;;;;;28.84;43.46;100459.97;5088433;28;20355;-68
2021/06/17 11:00:44;;;;;;;5.43;2.22;;;;;;;28.76;45.59;100459.38;5086619;28;20016;-68
2021/06/17 11:03:12;;;;;;;4.30;2.05;;;;;;;28.42;44.99;100480.09;5087413;28;20521;-68
2021/06/17 11:05:40;;;;;;;5.10;2.20;;;;;;;28.19;45.26;100473.88;5089181;28;20497;-67
2021/06/17 11:08:21;;;;;;;3.50;2.38;;;;;;;27.92;46.99;100468.56;5090856;28;20031;-68
2021/06/17 11:10:47;;;;;;;6.07;2.55;;;;;;;28.00;47.99;100467.44;5088446;28;20032;-67
2021/06/17 11:13:36;;;;;;;3.65;2.25;;;;;;;28.55;50.20;100468.09;5090824;28;20178;-67
2021/06/17 11:16:01;;;;;;;3.35;2.22;;;;;;;28.78;46.62;100479.66;5089777;28;20024;-68
2021/06/17 11:18:43;;;;;;;6.05;3.05;;;;;;;29.13;50.36;100480.03;5089473;28;20501;-68
2021/06/17 11:21:24;;;;;;;5.32;2.50;;;;;;;29.30;44.26;100467.91;5089539;28;20019;-67
2021/06/17 11:23:52;;;;;;;4.45;2.22;;;;;;;29.34;47.98;100464.19;5052808;28;20055;-68
2021/06/17 11:26:39;;;;;;;6.35;2.30;;;;;;;29.52;48.23;100447.47;5055599;28;20043;-68
2021/06/17 11:29:58;;;;;;;4.45;2.10;;;;;;;29.92;47.71;100458.19;5087411;28;20068;-68
2021/06/17 11:32:30;;;;;;;6.88;2.30;;;;;;;29.95;47.20;100462.53;5020498;28;20045;-68
2021/06/17 11:34:56;;;;;;;5.40;2.25;;;;;;;29.57;45.76;100455.22;5018912;28;20041;-68
2021/06/17 11:37:22;;;;;;;4.25;2.20;;;;;;;29.34;48.62;100467.69;5015234;28;20559;-68